Time;durP1;ratioP1;P1;durP2;ratioP2;P2;SDS_P1;SDS_P2;PMS_P1;PMS_P2;Temp;Humidity;BMP_temperature;BMP_pressure;BME280_temperature;BME280_humidity;BME280_pressure;Samples;Min_cycle;Max_cycle;Signal;HPM_P1;HPM_P2
2022/05/29 00:01:40;;;;;;;9.33;2.27;;;10.70;1.00;;;;;;5092451;28;20240;-75
2022/05/29 00:04:06;;;;;;;4.00;1.90;;;10.70;1.00;;;;;;5091288;28;20191;-75
2022/05/29 00:06:40;;;;;;;3.00;1.90;;;10.70;1.00;;;;;;5091847;28;20655;-74
2022/05/29 00:09:07;;;;;;;4.90;2.27;;;10.70;1.00;;;;;;5089421;28;20194;-75
2022/05/29 00:11:34;;;;;;;8.77;2.00;;;10.70;1.00;;;;;;5091308;28;20544;-74
2022/05/29 00:14:01;;;;;;;5.87;2.00;;;10.80;1.00;;;;;;5092260;28;20240;-74
2022/05/29 00:16:29;;;;;;;3.60;2.07;;;10.70;1.00;;;;;;5091996;28;20198;-74
2022/05/29 00:18:56;;;;;;;10.63;2.40;;;10.70;1.00;;;;;;5088670;28;20635;-74
2022/05/29 00:21:24;;;;;;;7.47;2.53;;;10.70;1.90;;;;;;5089589;28;20594;-74
2022/05/29 00:23:51;;;;;;;4.57;2.00;;;10.70;6.20;;;;;;5091233;28;20647;-74
2022/05/29 00:26:18;;;;;;;5.97;2.30;;;10.70;1.00;;;;;;5091351;28;20601;-74
2022/05/29 00:28:46;;;;;;;6.00;2.50;;;10.80;1.00;;;;;;5089967;28;20201;-75
2022/05/29 00:31:14;;;;;;;6.00;2.00;;;10.80;6.70;;;;;;5091042;28;20208;-75
2022/05/29 00:33:42;;;;;;;6.43;2.50;;;10.70;17.50;;;;;;5091438;28;20222;-74
2022/05/29 00:36:10;;;;;;;5.83;2.20;;;10.70;16.60;;;;;;5087727;28;20209;-74
2022/05/29 00:38:40;;;;;;;4.17;2.20;;;10.70;27.80;;;;;;5086515;28;20205;-74
2022/05/29 00:41:17;;;;;;;8.07;2.20;;;10.60;29.10;;;;;;5090483;28;20201;-74
2022/05/29 00:43:45;;;;;;;8.37;2.23;;;10.70;37.40;;;;;;5091065;28;20237;-74
2022/05/29 00:46:12;;;;;;;5.53;2.70;;;10.60;40.80;;;;;;5090396;28;20209;-75
2022/05/29 00:48:39;;;;;;;7.37;2.07;;;10.60;55.10;;;;;;5090957;28;20202;-75
2022/05/29 00:51:13;;;;;;;9.20;2.37;;;10.60;50.80;;;;;;5091871;28;20295;-75
2022/05/29 00:53:40;;;;;;;7.57;2.20;;;10.50;76.30;;;;;;5089615;28;20679;-74
2022/05/29 00:56:11;;;;;;;8.43;2.20;;;10.60;91.00;;;;;;5090388;28;20540;-75
2022/05/29 00:58:38;;;;;;;7.63;1.97;;;10.50;97.20;;;;;;5090787;28;20206;-75
2022/05/29 01:01:05;;;;;;;4.20;2.07;;;10.50;99.90;;;;;;5090180;28;20228;-75
2022/05/29 01:03:32;;;;;;;4.10;1.97;;;10.30;99.90;;;;;;5090270;28;20662;-74
2022/05/29 01:05:59;;;;;;;4.83;1.80;;;10.30;99.90;;;;;;5090873;28;20209;-75
2022/05/29 01:08:30;;;;;;;5.43;1.93;;;10.30;99.90;;;;;;5091002;28;20204;-75
2022/05/29 01:11:21;;;;;;;11.17;2.70;;;10.30;99.90;;;;;;5089445;28;20198;-74
2022/05/29 01:14:00;;;;;;;7.20;2.20;;;10.30;99.90;;;;;;5078041;28;20225;-74
2022/05/29 01:16:35;;;;;;;4.87;1.97;;;10.30;99.90;;;;;;5091028;28;20202;-75
2022/05/29 01:19:30;;;;;;;6.20;2.27;;;10.20;99.90;;;;;;5095366;28;20197;-75
2022/05/29 01:22:15;;;;;;;3.37;2.03;;;10.20;99.90;;;;;;5091772;28;20194;-74
2022/05/29 01:25:00;;;;;;;6.30;2.53;;;10.20;99.90;;;;;;5087379;28;20201;-74
2022/05/29 01:27:48;;;;;;;5.47;2.43;;;10.20;99.90;;;;;;5090407;28;20198;-75
2022/05/29 01:30:20;;;;;;;7.80;2.63;;;10.20;99.90;;;;;;5090684;28;20220;-74
2022/05/29 01:32:57;;;;;;;4.37;2.27;;;10.20;99.90;;;;;;5090996;28;20203;-74
2022/05/29 01:35:28;;;;;;;6.17;2.23;;;10.10;99.90;;;;;;5092549;28;20256;-74
2022/05/29 01:38:00;;;;;;;7.77;2.83;;;10.20;99.90;;;;;;5092901;28;20189;-74
2022/05/29 01:40:36;;;;;;;6.87;2.20;;;10.20;99.90;;;;;;5094705;28;20697;-74
2022/05/29 01:43:10;;;;;;;5.43;2.30;;;10.10;99.90;;;;;;5093391;28;20200;-74
2022/05/29 01:45:54;;;;;;;5.43;2.50;;;10.20;99.90;;;;;;5090631;28;20445;-74
2022/05/29 01:48:34;;;;;;;6.30;2.33;;;10.10;99.90;;;;;;5090332;28;20944;-74
2022/05/29 01:51:06;;;;;;;5.30;2.80;;;10.10;99.90;;;;;;5093739;28;20613;-75
2022/05/29 01:53:38;;;;;;;7.47;2.73;;;10.20;99.90;;;;;;5093372;28;20210;-74
2022/05/29 01:56:13;;;;;;;8.13;2.60;;;10.20;99.90;;;;;;5085478;28;20204;-74
2022/05/29 01:58:44;;;;;;;8.37;2.63;;;10.20;99.90;;;;;;5095036;28;20201;-74
2022/05/29 02:01:14;;;;;;;3.47;2.50;;;10.20;99.90;;;;;;5093799;28;20213;-74
2022/05/29 02:03:46;;;;;;;7.43;3.03;;;10.10;99.90;;;;;;5091105;28;20213;-74
2022/05/29 02:06:19;;;;;;;6.17;2.80;;;10.10;99.90;;;;;;5093771;28;20205;-74
2022/05/29 02:08:49;;;;;;;5.90;2.93;;;10.10;99.90;;;;;;5090877;28;20213;-74
2022/05/29 02:11:22;;;;;;;5.40;2.80;;;10.20;99.90;;;;;;5094019;28;20202;-74
2022/05/29 02:13:54;;;;;;;8.80;3.10;;;10.10;99.90;;;;;;5093148;28;20212;-74
2022/05/29 02:16:30;;;;;;;6.50;2.80;;;10.20;99.90;;;;;;5093178;28;20655;-74
2022/05/29 02:19:02;;;;;;;9.07;2.80;;;10.20;99.90;;;;;;5093629;28;20201;-74
2022/05/29 02:21:33;;;;;;;8.00;3.80;;;10.20;99.90;;;;;;5094054;28;20198;-75
2022/05/29 02:24:03;;;;;;;8.50;3.07;;;10.30;99.90;;;;;;5091565;28;20205;-74
2022/05/29 02:26:34;;;;;;;6.60;3.20;;;10.20;99.90;;;;;;5093730;28;20209;-74
2022/05/29 02:29:07;;;;;;;6.90;3.00;;;10.20;99.90;;;;;;5075613;28;20198;-74
2022/05/29 02:31:42;;;;;;;8.43;3.10;;;10.20;99.90;;;;;;5092722;28;20210;-74
2022/05/29 02:34:19;;;;;;;8.47;2.90;;;10.20;99.90;;;;;;5074267;28;20221;-75
2022/05/29 02:36:52;;;;;;;6.37;2.93;;;10.20;99.90;;;;;;5093564;28;20255;-74
2022/05/29 02:39:32;;;;;;;7.80;3.53;;;10.20;99.90;;;;;;5092989;28;20208;-74
2022/05/29 02:42:09;;;;;;;6.50;3.00;;;10.10;99.90;;;;;;5093317;28;20235;-75
2022/05/29 02:44:47;;;;;;;7.37;3.37;;;10.10;99.90;;;;;;5075733;28;20212;-74
2022/05/29 02:47:30;;;;;;;8.47;3.30;;;10.20;99.90;;;;;;5092237;28;20205;-75
2022/05/29 02:50:19;;;;;;;9.27;3.03;;;10.20;99.90;;;;;;5093434;28;20193;-74
2022/05/29 02:52:46;;;;;;;6.10;3.47;;;10.20;99.90;;;;;;5092961;28;20216;-74
2022/05/29 02:55:13;;;;;;;5.27;3.30;;;10.20;99.90;;;;;;5091369;28;20225;-74
2022/05/29 02:57:41;;;;;;;8.83;3.37;;;10.20;99.90;;;;;;5092472;28;20220;-74
2022/05/29 03:00:12;;;;;;;6.73;2.70;;;10.20;99.90;;;;;;5093764;28;20205;-74
2022/05/29 03:02:51;;;;;;;6.00;3.00;;;10.20;99.90;;;;;;5092996;28;20251;-74
2022/05/29 03:05:24;;;;;;;5.73;3.33;;;10.20;99.90;;;;;;5089352;28;20199;-74
2022/05/29 03:08:21;;;;;;;5.63;3.00;;;10.10;99.90;;;;;;5092139;28;20202;-75
2022/05/29 03:10:54;;;;;;;9.67;3.27;;;10.20;99.90;;;;;;5083361;28;20781;-74
2022/05/29 03:13:31;;;;;;;4.83;3.17;;;10.20;99.90;;;;;;5092790;28;20653;-74
2022/05/29 03:16:06;;;;;;;8.60;3.27;;;10.20;99.90;;;;;;5091375;28;20202;-74
2022/05/29 03:18:46;;;;;;;13.67;3.43;;;10.20;99.90;;;;;;5092032;28;20197;-74
2022/05/29 03:21:24;;;;;;;6.73;3.10;;;10.20;99.90;;;;;;5092872;28;20201;-74
2022/05/29 03:23:56;;;;;;;7.23;2.83;;;10.20;99.90;;;;;;5089780;28;20200;-74
2022/05/29 03:26:29;;;;;;;10.33;3.73;;;10.20;99.90;;;;;;5092654;28;20202;-75
2022/05/29 03:29:04;;;;;;;8.30;3.13;;;10.10;99.90;;;;;;5093187;28;20200;-74
2022/05/29 03:31:31;;;;;;;10.17;3.50;;;10.00;99.90;;;;;;5092208;28;20654;-75
2022/05/29 03:34:00;;;;;;;10.37;3.83;;;10.10;99.90;;;;;;5090293;28;20655;-74
2022/05/29 03:36:28;;;;;;;9.30;3.40;;;10.20;99.90;;;;;;5092637;28;20202;-74
2022/05/29 03:38:55;;;;;;;7.00;3.40;;;10.20;99.90;;;;;;5091832;28;20197;-74
2022/05/29 03:41:28;;;;;;;8.63;3.47;;;10.20;99.90;;;;;;5091185;28;20248;-74
2022/05/29 03:43:55;;;;;;;7.73;3.87;;;10.20;99.90;;;;;;5090780;28;20243;-74
2022/05/29 03:46:22;;;;;;;8.93;3.67;;;10.10;99.90;;;;;;5092009;28;20209;-74
2022/05/29 03:48:49;;;;;;;10.77;4.60;;;10.10;99.90;;;;;;5092305;28;20565;-74
2022/05/29 03:51:17;;;;;;;10.03;3.50;;;10.10;99.90;;;;;;5092000;28;20205;-74
2022/05/29 03:53:44;;;;;;;6.43;3.47;;;10.20;99.90;;;;;;5090910;28;20292;-74
2022/05/29 03:56:11;;;;;;;11.13;3.77;;;10.10;99.90;;;;;;5091287;28;20593;-74
2022/05/29 03:58:38;;;;;;;9.87;4.13;;;10.20;99.90;;;;;;5092530;28;20200;-74
2022/05/29 04:01:05;;;;;;;11.50;3.97;;;10.30;99.90;;;;;;5091403;28;20194;-74
2022/05/29 04:03:32;;;;;;;8.97;3.57;;;10.40;99.90;;;;;;5091108;28;20206;-74
2022/05/29 04:05:58;;;;;;;9.80;3.90;;;10.30;99.90;;;;;;5091779;28;20208;-74
2022/05/29 04:13:57;;;;;;;10.53;3.83;;;10.50;99.90;;;;;;5091608;28;20669;-75
2022/05/29 04:16:24;;;;;;;8.37;3.70;;;10.40;99.90;;;;;;5091927;28;20314;-74
2022/05/29 04:18:51;;;;;;;18.03;4.30;;;10.30;99.90;;;;;;5092308;28;20205;-74
2022/05/29 04:21:18;;;;;;;10.60;4.17;;;10.40;99.90;;;;;;5092100;28;20198;-74
2022/05/29 04:23:46;;;;;;;7.77;3.90;;;10.40;99.90;;;;;;5091278;28;20208;-75
2022/05/29 04:26:14;;;;;;;10.30;3.90;;;10.30;99.90;;;;;;5091435;28;20292;-74
2022/05/29 04:28:41;;;;;;;10.17;3.77;;;10.40;99.90;;;;;;5091525;28;20194;-75
2022/05/29 04:31:08;;;;;;;9.63;3.80;;;10.40;99.90;;;;;;5091731;28;20338;-75
2022/05/29 04:33:35;;;;;;;9.83;3.77;;;10.30;99.90;;;;;;5090251;28;20204;-75
2022/05/29 04:36:02;;;;;;;10.47;4.33;;;10.30;99.90;;;;;;5091328;28;20451;-75
2022/05/29 04:38:29;;;;;;;8.23;4.23;;;10.50;99.90;;;;;;5090448;28;20210;-75
2022/05/29 04:40:59;;;;;;;7.83;3.80;;;10.50;99.90;;;;;;5090226;28;20702;-74
2022/05/29 04:43:26;;;;;;;10.63;4.13;;;10.60;99.90;;;;;;5090705;28;20208;-74
2022/05/29 04:45:55;;;;;;;7.30;3.53;;;10.70;99.90;;;;;;5091193;28;20216;-74
2022/05/29 04:48:22;;;;;;;6.73;3.10;;;10.60;99.90;;;;;;5091535;28;20659;-75
2022/05/29 04:50:49;;;;;;;10.07;3.50;;;10.60;99.90;;;;;;5091020;28;20212;-74
2022/05/29 04:53:16;;;;;;;9.77;4.00;;;10.70;99.90;;;;;;5090846;28;20678;-74
2022/05/29 04:55:43;;;;;;;6.30;3.47;;;10.60;99.90;;;;;;5089289;28;20228;-74
2022/05/29 04:58:11;;;;;;;15.60;3.83;;;10.80;99.90;;;;;;5091099;28;20197;-74
2022/05/29 05:00:38;;;;;;;12.43;3.43;;;10.80;99.90;;;;;;5091034;28;20202;-74
2022/05/29 05:03:05;;;;;;;8.27;3.73;;;10.90;99.90;;;;;;5091066;28;20193;-74
2022/05/29 05:05:32;;;;;;;12.33;3.67;;;11.00;99.90;;;;;;5087167;28;20197;-72
2022/05/29 05:07:59;;;;;;;10.00;3.23;;;10.90;99.90;;;;;;5093583;28;20197;-72
2022/05/29 05:10:26;;;;;;;9.63;3.60;;;11.00;99.90;;;;;;5095237;28;20236;-72
2022/05/29 05:12:53;;;;;;;12.00;3.83;;;11.10;99.90;;;;;;5095243;28;20208;-72
2022/05/29 05:15:22;;;;;;;9.47;3.53;;;11.10;99.90;;;;;;5094520;28;20652;-72
2022/05/29 05:17:49;;;;;;;11.53;3.50;;;11.10;99.90;;;;;;5095492;28;20652;-72
2022/05/29 05:20:16;;;;;;;8.27;3.07;;;11.10;99.90;;;;;;5100998;28;20556;-72
2022/05/29 05:22:43;;;;;;;10.80;3.57;;;11.00;99.90;;;;;;5094268;28;20209;-72
2022/05/29 05:25:11;;;;;;;7.00;3.03;;;11.10;99.90;;;;;;5091663;28;20206;-72
2022/05/29 05:27:38;;;;;;;8.27;3.00;;;11.00;99.90;;;;;;5094790;28;20205;-71
2022/05/29 05:30:06;;;;;;;13.97;5.83;;;11.00;99.90;;;;;;5094526;28;20205;-72
2022/05/29 05:32:34;;;;;;;7.57;3.20;;;11.10;99.90;;;;;;5094093;28;20209;-72
2022/05/29 05:35:04;;;;;;;8.03;3.57;;;11.10;99.90;;;;;;5080155;28;20225;-71
2022/05/29 05:37:31;;;;;;;7.77;3.80;;;11.00;99.90;;;;;;5094409;28;20229;-71
2022/05/29 05:39:58;;;;;;;14.50;4.03;;;11.00;99.90;;;;;;5091723;28;20205;-72
2022/05/29 05:42:25;;;;;;;8.83;3.70;;;11.00;99.90;;;;;;5094127;28;20208;-71
2022/05/29 05:44:53;;;;;;;8.20;3.80;;;11.10;99.90;;;;;;5093257;28;20241;-72
2022/05/29 05:47:24;;;;;;;7.03;3.50;;;11.10;99.90;;;;;;5094018;28;20200;-72
2022/05/29 05:49:53;;;;;;;10.57;3.97;;;11.10;99.90;;;;;;5093946;28;20202;-72
2022/05/29 05:52:20;;;;;;;15.63;5.03;;;11.20;99.90;;;;;;5095607;28;20697;-72
2022/05/29 05:54:47;;;;;;;11.70;3.70;;;11.10;99.90;;;;;;5087553;28;20546;-72
2022/05/29 05:57:13;;;;;;;11.83;4.57;;;11.20;99.90;;;;;;5086350;28;20209;-72
2022/05/29 05:59:41;;;;;;;10.90;3.80;;;11.20;99.90;;;;;;5087859;28;20213;-72
2022/05/29 06:02:10;;;;;;;12.03;3.50;;;11.30;99.90;;;;;;5092916;28;20204;-72
2022/05/29 06:04:37;;;;;;;10.30;3.63;;;11.20;99.90;;;;;;5084574;28;20667;-72
2022/05/29 06:07:05;;;;;;;9.47;3.77;;;11.30;99.90;;;;;;5091051;28;20198;-72
2022/05/29 06:09:32;;;;;;;14.53;4.50;;;11.30;99.90;;;;;;5090171;28;20288;-72
2022/05/29 06:11:59;;;;;;;11.23;3.47;;;11.30;99.90;;;;;;5089880;28;20652;-72
2022/05/29 06:14:26;;;;;;;8.57;3.60;;;11.20;99.90;;;;;;5091916;28;20259;-72
2022/05/29 06:16:53;;;;;;;15.20;3.67;;;11.20;99.90;;;;;;5088270;28;20686;-72
2022/05/29 06:19:20;;;;;;;6.47;3.30;;;11.20;99.90;;;;;;5088670;28;20206;-72
2022/05/29 06:21:47;;;;;;;11.87;3.80;;;11.30;99.90;;;;;;5090486;28;20225;-72
2022/05/29 06:24:15;;;;;;;13.67;3.80;;;11.30;99.90;;;;;;5086751;28;20651;-72
2022/05/29 06:26:42;;;;;;;11.77;4.77;;;11.20;99.90;;;;;;5088498;28;20202;-72
2022/05/29 06:29:09;;;;;;;16.10;4.93;;;11.30;99.90;;;;;;5087321;28;20206;-72
2022/05/29 06:31:36;;;;;;;13.37;4.70;;;11.30;99.90;;;;;;5086690;28;20576;-72
2022/05/29 06:34:03;;;;;;;9.67;3.70;;;11.20;99.90;;;;;;5086168;28;20550;-72
2022/05/29 06:36:30;;;;;;;13.30;3.97;;;11.20;99.90;;;;;;5084864;28;20544;-72
2022/05/29 06:38:58;;;;;;;9.70;3.80;;;11.20;99.90;;;;;;5085898;28;20679;-71
2022/05/29 06:41:27;;;;;;;6.87;3.60;;;11.20;99.90;;;;;;5088026;28;20580;-72
2022/05/29 06:43:54;;;;;;;14.37;4.80;;;11.30;99.90;;;;;;5089454;28;20198;-71
2022/05/29 06:46:22;;;;;;;8.07;3.70;;;11.30;99.90;;;;;;5088882;28;20659;-71
2022/05/29 06:48:49;;;;;;;14.33;4.47;;;11.30;99.90;;;;;;5087238;28;20659;-72
2022/05/29 06:51:21;;;;;;;11.40;3.70;;;11.40;99.90;;;;;;5087698;28;20227;-72
2022/05/29 06:53:49;;;;;;;9.10;4.10;;;11.50;99.90;;;;;;5089139;28;20321;-72
2022/05/29 06:56:17;;;;;;;7.63;3.60;;;11.60;99.90;;;;;;5086349;28;20698;-72
2022/05/29 06:58:45;;;;;;;9.57;3.40;;;11.70;99.90;;;;;;5089450;28;20681;-72
2022/05/29 07:07:02;;;;;;;15.80;4.57;;;11.40;99.90;;;;;;5092640;28;20249;-72
2022/05/29 07:09:31;;;;;;;10.17;4.47;;;11.50;99.90;;;;;;5092076;28;20314;-72
2022/05/29 07:12:02;;;;;;;13.50;4.37;;;11.50;99.90;;;;;;5082884;28;20566;-73
2022/05/29 07:14:30;;;;;;;7.70;3.90;;;11.30;99.90;;;;;;5085154;28;20202;-72
2022/05/29 07:16:57;;;;;;;9.07;4.00;;;11.30;99.90;;;;;;5088307;28;20221;-72
2022/05/29 07:19:25;;;;;;;10.83;4.50;;;11.30;99.90;;;;;;5086863;28;20300;-73
2022/05/29 07:21:56;;;;;;;9.00;4.53;;;11.40;99.90;;;;;;5089357;28;20562;-72
2022/05/29 07:24:23;;;;;;;12.93;4.37;;;11.50;99.90;;;;;;5089053;28;20206;-73
2022/05/29 07:26:50;;;;;;;8.90;4.20;;;11.50;99.90;;;;;;5089991;28;20573;-73
2022/05/29 07:29:18;;;;;;;7.47;3.70;;;11.60;99.90;;;;;;5084804;28;20205;-73
2022/05/29 07:31:46;;;;;;;8.67;3.90;;;11.70;99.90;;;;;;5089703;28;20443;-73
2022/05/29 07:34:13;;;;;;;9.03;5.17;;;11.80;99.90;;;;;;5085861;28;20205;-73
2022/05/29 07:36:40;;;;;;;11.30;3.90;;;12.00;99.90;;;;;;5090099;28;20224;-72
2022/05/29 07:39:09;;;;;;;15.17;4.83;;;12.10;99.90;;;;;;5084866;28;20450;-72
2022/05/29 07:44:34;;;;;;;6.10;2.93;;;12.10;99.90;;;;;;5003480;28;20298;-72
2022/05/29 07:47:03;;;;;;;8.93;2.90;;;11.60;99.90;;;;;;5002661;28;20200;-72
2022/05/29 07:49:30;;;;;;;7.63;3.33;;;11.50;99.90;;;;;;5037341;28;20193;-72
2022/05/29 07:51:57;;;;;;;10.60;3.23;;;11.50;99.90;;;;;;5081119;28;20206;-72
2022/05/29 07:54:25;;;;;;;8.13;3.47;;;11.40;99.90;;;;;;5080309;28;20206;-72
2022/05/29 07:56:52;;;;;;;8.73;3.60;;;11.40;99.90;;;;;;5086710;28;20259;-72
2022/05/29 07:59:19;;;;;;;10.00;3.93;;;11.50;99.90;;;;;;5084859;28;20210;-73
2022/05/29 08:01:46;;;;;;;8.33;3.50;;;11.60;99.90;;;;;;5086486;28;20204;-73
2022/05/29 08:04:15;;;;;;;9.43;3.37;;;11.90;99.90;;;;;;5086437;28;20202;-72
2022/05/29 08:06:42;;;;;;;8.97;3.47;;;11.90;99.90;;;;;;5090067;28;20266;-72
2022/05/29 08:09:09;;;;;;;4.57;2.70;;;12.00;99.90;;;;;;5089325;28;20216;-72
2022/05/29 08:11:36;;;;;;;6.57;2.87;;;12.00;99.90;;;;;;5090148;28;20564;-72
2022/05/29 08:14:04;;;;;;;4.33;2.90;;;12.10;99.90;;;;;;5091973;28;20199;-72
2022/05/29 08:16:30;;;;;;;5.37;2.80;;;12.00;99.90;;;;;;5092518;28;20327;-72
2022/05/29 08:18:57;;;;;;;5.20;2.87;;;12.00;99.90;;;;;;5090180;28;20205;-72
2022/05/29 08:21:26;;;;;;;3.83;2.97;;;12.00;99.90;;;;;;5089525;28;20636;-73
2022/05/29 08:32:06;;;;;;;4.70;2.53;;;12.60;99.90;;;;;;5090310;28;20213;-76
2022/05/29 08:34:33;;;;;;;3.73;2.40;;;12.80;99.90;;;;;;5090743;28;20288;-76
2022/05/29 08:37:02;;;;;;;3.70;2.40;;;13.10;99.90;;;;;;5091695;28;20225;-76
2022/05/29 08:39:29;;;;;;;4.57;2.40;;;13.30;99.90;;;;;;5091883;28;20224;-76
2022/05/29 08:41:58;;;;;;;7.40;2.90;;;13.30;99.90;;;;;;5089535;28;20625;-76
2022/05/29 08:44:40;;;;;;;5.40;2.60;;;13.60;99.90;;;;;;5091934;28;20201;-76
2022/05/29 08:47:07;;;;;;;3.03;2.50;;;13.40;99.90;;;;;;5073297;28;20239;-76
2022/05/29 08:49:39;;;;;;;5.17;2.80;;;13.30;99.90;;;;;;5090988;28;20211;-76
2022/05/29 08:52:28;;;;;;;3.63;1.87;;;13.50;99.90;;;;;;5089794;28;20200;-76
2022/05/29 08:55:01;;;;;;;3.50;2.00;;;13.80;99.90;;;;;;5083259;28;20201;-75
2022/05/29 08:57:54;;;;;;;2.37;2.07;;;13.80;99.90;;;;;;5087718;28;20213;-76
2022/05/29 09:00:28;;;;;;;3.50;1.80;;;13.80;99.90;;;;;;5091529;28;20194;-76
2022/05/29 09:03:08;;;;;;;3.60;1.80;;;14.30;99.90;;;;;;5089812;28;20194;-76
2022/05/29 09:05:39;;;;;;;4.87;1.70;;;14.60;99.90;;;;;;5085615;28;20213;-76
2022/05/29 09:08:14;;;;;;;2.93;1.50;;;14.50;99.90;;;;;;5088801;28;20655;-76
2022/05/29 09:10:44;;;;;;;5.13;1.90;;;14.50;99.90;;;;;;5088479;28;20209;-75
2022/05/29 09:13:16;;;;;;;4.43;1.77;;;14.20;99.90;;;;;;5088012;28;20208;-76
2022/05/29 09:15:48;;;;;;;1.83;1.67;;;14.10;99.90;;;;;;5088665;28;20650;-76
2022/05/29 09:18:19;;;;;;;3.87;1.67;;;14.00;99.90;;;;;;5090257;28;20645;-76
2022/05/29 09:20:49;;;;;;;4.13;2.00;;;13.80;99.90;;;;;;5097735;28;20211;-76
2022/05/29 09:23:22;;;;;;;3.37;1.83;;;13.80;99.90;;;;;;5084930;28;20731;-77
2022/05/29 09:25:50;;;;;;;5.97;3.03;;;13.90;99.90;;;;;;5089836;28;20202;-77
2022/05/29 09:28:24;;;;;;;4.70;2.00;;;13.70;99.90;;;;;;5091241;28;20275;-77
2022/05/29 09:30:53;;;;;;;3.87;2.33;;;14.00;99.90;;;;;;5090958;28;20626;-77
2022/05/29 09:33:24;;;;;;;2.27;1.90;;;14.00;99.90;;;;;;5090502;28;20202;-76
2022/05/29 09:35:57;;;;;;;3.37;2.00;;;14.00;99.90;;;;;;5090376;28;20214;-76
2022/05/29 09:38:31;;;;;;;5.43;2.33;;;13.40;99.90;;;;;;5091460;28;20495;-76
2022/05/29 09:41:02;;;;;;;5.53;2.60;;;13.10;99.90;;;;;;5089815;28;20209;-76
2022/05/29 09:43:30;;;;;;;5.40;2.67;;;13.40;99.90;;;;;;5088847;28;20213;-76
2022/05/29 09:46:17;;;;;;;4.63;2.30;;;13.80;99.90;;;;;;5091190;28;20691;-76
2022/05/29 09:51:42;;;;;;;2.77;1.90;;;15.10;99.90;;;;;;5090760;28;20566;-77
2022/05/29 09:54:19;;;;;;;2.77;1.60;;;14.80;99.90;;;;;;5087411;28;20214;-77
2022/05/29 09:56:46;;;;;;;2.67;1.60;;;14.70;99.90;;;;;;5092525;28;20225;-77
2022/05/29 09:59:19;;;;;;;2.60;1.80;;;14.30;99.90;;;;;;5092252;28;20206;-76
2022/05/29 10:01:46;;;;;;;3.13;1.87;;;14.10;99.90;;;;;;5085835;28;20212;-76
2022/05/29 10:04:16;;;;;;;8.90;4.97;;;14.30;99.90;;;;;;5088725;28;20667;-76
2022/05/29 10:06:46;;;;;;;1.60;1.50;;;14.60;99.90;;;;;;5093613;28;20571;-76
2022/05/29 10:09:17;;;;;;;1.50;1.00;;;14.80;99.90;;;;;;5087145;28;20333;-80
2022/05/29 10:11:46;;;;;;;1.30;1.20;;;15.00;99.90;;;;;;5083971;28;20202;-80
2022/05/29 10:14:36;;;;;;;1.27;1.13;;;15.40;99.90;;;;;;5081398;28;20230;-75
2022/05/29 10:17:12;;;;;;;1.37;1.20;;;15.80;99.50;;;;;;5082508;28;20218;-75
2022/05/29 10:19:40;;;;;;;2.27;1.60;;;15.70;97.60;;;;;;5086185;28;20209;-81
2022/05/29 10:22:17;;;;;;;1.30;1.17;;;15.70;98.00;;;;;;5082331;28;20591;-81
2022/05/29 10:24:46;;;;;;;2.00;1.10;;;15.50;99.20;;;;;;5085974;28;20212;-81
2022/05/29 10:27:26;;;;;;;2.67;1.47;;;15.90;99.90;;;;;;5086767;28;20194;-81
2022/05/29 10:29:56;;;;;;;1.67;1.20;;;15.30;99.90;;;;;;5083026;28;20201;-81
2022/05/29 10:32:26;;;;;;;3.43;1.50;;;15.50;99.90;;;;;;5081696;28;20206;-80
2022/05/29 10:35:05;;;;;;;1.73;1.30;;;15.00;98.90;;;;;;5083111;28;20201;-81
2022/05/29 10:37:38;;;;;;;1.80;1.30;;;15.00;99.90;;;;;;5086007;28;20218;-80
2022/05/29 10:40:21;;;;;;;4.70;1.93;;;14.60;1.00;;;;;;5086220;28;20622;-80
2022/05/29 10:42:50;;;;;;;4.07;2.00;;;13.50;97.50;;;;;;5089074;28;20205;-80
2022/05/29 10:45:22;;;;;;;3.33;2.00;;;12.70;99.90;;;;;;5087296;28;20205;-81
2022/05/29 10:48:28;;;;;;;5.43;2.40;;;12.60;99.90;;;;;;5088428;28;20205;-82
2022/05/29 10:51:07;;;;;;;3.10;2.10;;;12.40;99.90;;;;;;5081532;28;20202;-82
2022/05/29 10:53:49;;;;;;;6.00;2.50;;;12.10;99.90;;;;;;5070062;28;20220;-82
2022/05/29 10:56:28;;;;;;;4.90;2.93;;;12.10;99.90;;;;;;5071459;28;20201;-82
2022/05/29 10:59:15;;;;;;;4.57;3.03;;;12.40;99.90;;;;;;5089165;28;20201;-82
2022/05/29 11:04:52;;;;;;;4.87;3.00;;;12.50;99.90;;;;;;5085032;28;20587;-81
2022/05/29 11:07:48;;;;;;;8.03;3.53;;;12.50;99.90;;;;;;5069239;28;20206;-82
2022/05/29 11:10:36;;;;;;;4.60;2.63;;;12.70;99.90;;;;;;5090291;28;20626;-82
2022/05/29 11:13:25;;;;;;;5.13;2.97;;;13.00;99.90;;;;;;5077080;28;20201;-82
2022/05/29 11:16:03;;;;;;;15.20;3.87;;;13.10;99.90;;;;;;5075174;28;20198;-81
2022/05/29 11:18:56;;;;;;;5.70;3.13;;;13.40;99.90;;;;;;5074059;28;20205;-81
2022/05/29 11:21:33;;;;;;;4.50;2.90;;;13.70;99.90;;;;;;5088213;28;20582;-81
2022/05/29 11:24:18;;;;;;;7.67;2.73;;;13.70;99.90;;;;;;5067459;28;20206;-82
2022/05/29 11:26:55;;;;;;;4.07;2.13;;;13.70;99.90;;;;;;5066495;28;20199;-79
2022/05/29 11:29:38;;;;;;;4.73;2.70;;;13.20;99.90;;;;;;5070391;28;20204;-78
2022/05/29 11:32:21;;;;;;;3.20;2.20;;;13.50;99.90;;;;;;5082752;28;20301;-79
2022/05/29 11:34:57;;;;;;;2.67;2.00;;;13.70;99.90;;;;;;5072821;28;20572;-78
2022/05/29 11:37:41;;;;;;;4.73;2.10;;;13.50;99.90;;;;;;5088039;28;20217;-78
2022/05/29 11:40:16;;;;;;;4.03;2.30;;;13.50;99.90;;;;;;5085136;28;20210;-79
2022/05/29 11:42:50;;;;;;;4.20;2.23;;;13.70;99.90;;;;;;5088587;28;20201;-78
2022/05/29 11:45:24;;;;;;;3.77;1.77;;;13.60;99.90;;;;;;5086110;28;20201;-81
2022/05/29 11:53:36;;;;;;;5.00;1.80;;;14.30;99.90;;;;;;5080478;28;20201;-70
2022/05/29 11:56:08;;;;;;;3.03;2.10;;;14.10;99.90;;;;;;5080639;28;20204;-70
2022/05/29 11:58:41;;;;;;;3.13;1.90;;;13.90;99.90;;;;;;5080693;28;20222;-70
2022/05/29 12:01:14;;;;;;;3.33;2.10;;;13.60;99.90;;;;;;5081630;28;20205;-70
2022/05/29 12:03:47;;;;;;;4.07;2.07;;;13.30;99.90;;;;;;5081290;28;20204;-70
2022/05/29 12:06:16;;;;;;;2.67;1.57;;;13.50;99.90;;;;;;5079274;28;20674;-70
2022/05/29 12:08:50;;;;;;;4.67;1.80;;;13.20;99.90;;;;;;5077472;28;20199;-70
2022/05/29 12:11:40;;;;;;;2.30;1.20;;;13.40;99.90;;;;;;5078444;28;20198;-70
2022/05/29 12:14:13;;;;;;;1.70;1.60;;;13.20;99.90;;;;;;5081242;28;20198;-70
2022/05/29 12:16:43;;;;;;;3.77;1.83;;;13.30;99.90;;;;;;5079081;28;20252;-70
2022/05/29 12:19:15;;;;;;;7.30;2.37;;;13.40;99.90;;;;;;5076622;28;20206;-70
2022/05/29 12:21:47;;;;;;;7.43;2.10;;;13.70;99.90;;;;;;5079441;28;20620;-70
2022/05/29 12:24:18;;;;;;;3.83;1.97;;;13.80;99.90;;;;;;5082443;28;20217;-70
2022/05/29 12:26:50;;;;;;;3.27;1.93;;;13.90;99.90;;;;;;5082289;28;20199;-70
2022/05/29 12:29:22;;;;;;;4.57;2.27;;;13.70;99.90;;;;;;5081753;28;20205;-70
2022/05/29 12:31:55;;;;;;;5.97;2.37;;;13.90;99.90;;;;;;5088987;28;20202;-69
2022/05/29 12:34:25;;;;;;;5.83;2.73;;;13.60;99.90;;;;;;5088569;28;20202;-70
2022/05/29 12:37:08;;;;;;;4.30;2.33;;;13.70;99.90;;;;;;5085601;28;20202;-70
2022/05/29 12:39:48;;;;;;;4.17;2.57;;;13.90;99.90;;;;;;5085014;28;20647;-70
2022/05/29 12:42:37;;;;;;;4.63;2.50;;;14.20;99.90;;;;;;5089261;28;20576;-70
2022/05/29 12:45:34;;;;;;;5.33;2.70;;;14.10;99.90;;;;;;5069661;28;20680;-70
2022/05/29 12:48:35;;;;;;;4.87;2.60;;;14.00;99.90;;;;;;5083187;28;20190;-70
2022/05/29 12:51:35;;;;;;;3.37;2.13;;;14.20;99.90;;;;;;5084158;28;20201;-70
2022/05/29 12:54:54;;;;;;;4.57;2.57;;;14.10;79.50;;;;;;5082892;28;20652;-69
2022/05/29 12:57:57;;;;;;;3.20;2.30;;;14.20;99.90;;;;;;5079529;28;20221;-70
2022/05/29 13:00:44;;;;;;;5.27;2.20;;;14.40;94.60;;;;;;5080888;28;20224;-70
2022/05/29 13:03:40;;;;;;;3.43;1.90;;;14.10;77.30;;;;;;5078698;28;20206;-70
2022/05/29 13:06:45;;;;;;;1.67;1.27;;;13.70;99.90;;;;;;5072348;28;20197;-70
2022/05/29 13:09:50;;;;;;;6.33;3.10;;;13.40;99.90;;;;;;5079879;28;20217;-70
2022/05/29 13:12:22;;;;;;;2.73;1.70;;;13.20;4.30;;;;;;5080232;28;20201;-70
2022/05/29 13:14:53;;;;;;;2.37;1.20;;;13.20;1.00;;;;;;5086550;28;20209;-70
2022/05/29 13:17:25;;;;;;;2.17;1.20;;;13.20;1.00;;;;;;5086513;28;20608;-70
2022/05/29 13:20:05;;;;;;;2.80;0.97;;;13.30;1.00;;;;;;5084150;28;20616;-70
2022/05/29 13:22:55;;;;;;;1.87;1.40;;;13.40;1.00;;;;;;5088683;28;20201;-70
2022/05/29 13:25:26;;;;;;;3.90;1.10;;;13.40;1.00;;;;;;5081040;28;20244;-70
2022/05/29 13:27:56;;;;;;;2.17;1.70;;;13.70;1.00;;;;;;5088460;28;20198;-70
2022/05/29 13:31:07;;;;;;;4.33;1.50;;;14.10;1.00;;;;;;5091911;28;20224;-70
2022/05/29 13:33:46;;;;;;;2.30;1.30;;;14.30;1.00;;;;;;5089729;28;20208;-70
2022/05/29 13:37:06;;;;;;;2.30;1.30;;;14.80;1.00;;;;;;5087732;28;20202;-70
2022/05/29 13:40:06;;;;;;;3.17;1.67;;;15.00;1.00;;;;;;5087889;28;20210;-70
2022/05/29 13:42:41;;;;;;;4.50;2.23;;;15.60;1.00;;;;;;5088161;28;20251;-70
2022/05/29 13:45:36;;;;;;;1.73;1.63;;;15.60;1.00;;;;;;5092844;28;20553;-70
2022/05/29 13:48:14;;;;;;;2.17;0.97;;;15.80;1.00;;;;;;5080744;28;20194;-69
2022/05/29 13:50:50;;;;;;;2.57;1.13;;;16.50;99.90;;;;;;5088429;28;20652;-69